createdAt,value
2022-10-22T00:00:48.418Z,48.76
2022-10-22T00:01:48.450Z,49.59
2022-10-22T00:02:48.460Z,49.68
2022-10-22T00:03:55.925Z,49.28
2022-10-22T00:04:48.396Z,51.06
2022-10-22T00:05:48.436Z,50.42
2022-10-22T00:06:48.409Z,50.38
2022-10-22T00:07:48.449Z,47.02
2022-10-22T00:08:48.465Z,50.75
2022-10-22T00:09:48.342Z,50.82
2022-10-22T00:10:48.303Z,51.16
2022-10-22T00:11:48.261Z,49.32
2022-10-22T00:12:48.310Z,50.99
2022-10-22T00:13:48.390Z,53.26
2022-10-22T00:14:48.237Z,51.30
2022-10-22T00:15:48.254Z,52.18
2022-10-22T00:16:48.364Z,48.43
2022-10-22T00:17:48.378Z,53.06
2022-10-22T00:18:48.296Z,49.14
2022-10-22T00:19:48.307Z,53.53
2022-10-22T00:20:48.271Z,51.52
2022-10-22T00:22:10.497Z,48.86
2022-10-22T00:22:49.313Z,52.11
2022-10-22T00:23:48.293Z,49.59
2022-10-22T00:24:48.273Z,47.81
2022-10-22T00:25:48.251Z,46.35
2022-10-22T00:26:48.275Z,47.77
2022-10-22T00:27:48.257Z,50.23
2022-10-22T00:28:48.293Z,46.68
2022-10-22T00:29:48.265Z,48.40
2022-10-22T00:30:48.250Z,47.38
2022-10-22T00:31:48.140Z,49.58
2022-10-22T00:32:48.152Z,47.44
2022-10-22T00:33:48.203Z,51.99
2022-10-22T00:34:48.090Z,47.62
2022-10-22T00:35:48.210Z,46.94
2022-10-22T00:36:48.084Z,48.93
2022-10-22T00:37:48.219Z,46.44
2022-10-22T00:38:48.149Z,46.53
2022-10-22T00:40:07.300Z,46.34
2022-10-22T00:40:49.113Z,51.02
2022-10-22T00:41:48.138Z,50.31
2022-10-22T00:42:48.127Z,47.81
2022-10-22T00:43:48.109Z,49.20
2022-10-22T00:44:48.278Z,52.41
2022-10-22T00:45:48.130Z,53.52
2022-10-22T00:46:48.070Z,52.38
2022-10-22T00:47:48.099Z,53.39
2022-10-22T00:48:48.072Z,50.80
2022-10-22T00:49:48.078Z,50.22
2022-10-22T00:50:48.105Z,46.44
2022-10-22T00:51:47.986Z,46.33
2022-10-22T00:52:47.984Z,50.46
2022-10-22T00:53:49.012Z,49.07
2022-10-22T00:54:48.029Z,51.33
2022-10-22T00:55:48.006Z,46.91
2022-10-22T00:56:47.951Z,48.33
2022-10-22T00:57:47.937Z,48.98
2022-10-22T00:58:47.943Z,47.96
2022-10-22T00:59:47.936Z,51.53
2022-10-22T01:00:48.079Z,51.65
2022-10-22T01:01:49.018Z,51.46
2022-10-22T01:02:48.038Z,52.49
2022-10-22T01:03:48.016Z,51.97
2022-10-22T01:04:48.553Z,50.37
2022-10-22T01:05:47.976Z,47.35
2022-10-22T01:06:47.993Z,46.92
2022-10-22T01:07:47.971Z,47.56
2022-10-22T01:08:47.998Z,46.61
2022-10-22T01:09:47.940Z,47.98
2022-10-22T01:10:47.871Z,46.68
2022-10-22T01:11:47.873Z,46.50
2022-10-22T01:12:47.828Z,47.76
2022-10-22T01:13:47.843Z,49.29
2022-10-22T01:14:47.794Z,51.37
2022-10-22T01:15:47.833Z,53.59
2022-10-22T01:16:47.863Z,51.53
2022-10-22T01:17:47.846Z,47.80
2022-10-22T01:18:47.804Z,51.91
2022-10-22T01:19:47.868Z,49.46
2022-10-22T01:20:47.845Z,50.34
2022-10-22T01:21:47.891Z,48.19
2022-10-22T01:22:47.863Z,46.02
2022-10-22T01:23:47.877Z,48.80
2022-10-22T01:24:47.824Z,50.11
2022-10-22T01:25:47.957Z,52.83
2022-10-22T01:26:47.830Z,52.44
2022-10-22T01:27:47.808Z,50.10
2022-10-22T01:28:47.846Z,50.16
2022-10-22T01:29:47.724Z,47.34
2022-10-22T01:30:47.739Z,48.01
2022-10-22T01:31:47.669Z,48.90
2022-10-22T01:32:47.758Z,50.65
2022-10-22T01:33:47.743Z,47.38
2022-10-22T01:34:47.675Z,47.92
2022-10-22T01:35:47.694Z,49.35
2022-10-22T01:36:47.657Z,50.29
2022-10-22T01:37:47.677Z,47.90
2022-10-22T01:38:47.812Z,48.46
2022-10-22T01:39:47.812Z,47.76
2022-10-22T01:40:47.733Z,54.76
2022-10-22T01:41:47.714Z,50.74
2022-10-22T01:42:47.706Z,53.66
2022-10-22T01:43:47.682Z,54.84
2022-10-22T01:44:47.786Z,48.89
2022-10-22T01:45:47.707Z,49.74
2022-10-22T01:46:47.759Z,48.80
2022-10-22T01:47:47.670Z,50.59
2022-10-22T01:48:47.609Z,51.27
2022-10-22T01:49:47.755Z,50.22
2022-10-22T01:50:47.584Z,51.88
2022-10-22T01:51:47.606Z,50.24
2022-10-22T01:52:47.575Z,50.69
2022-10-22T01:53:47.610Z,49.86
2022-10-22T01:54:47.571Z,49.87
2022-10-22T01:55:47.606Z,48.48
2022-10-22T01:56:47.531Z,51.29
2022-10-22T01:57:47.524Z,50.08
2022-10-22T01:58:47.525Z,48.86
2022-10-22T01:59:47.602Z,47.42
2022-10-22T02:00:47.699Z,46.69
2022-10-22T02:01:47.619Z,47.52
2022-10-22T02:03:47.566Z,49.68
2022-10-22T02:04:47.569Z,52.69
2022-10-22T02:05:47.594Z,52.18
2022-10-22T02:06:47.565Z,47.53
2022-10-22T02:07:47.580Z,48.51
2022-10-22T02:08:47.589Z,49.98
2022-10-22T02:09:47.578Z,48.54
2022-10-22T02:10:47.563Z,52.58
2022-10-22T02:11:47.919Z,47.79
2022-10-22T02:12:47.420Z,50.24
2022-10-22T02:13:47.419Z,52.48
2022-10-22T02:14:47.388Z,53.07
2022-10-22T02:15:47.400Z,51.78
2022-10-22T02:16:47.415Z,51.30
2022-10-22T02:17:47.423Z,49.88
2022-10-22T02:18:47.360Z,52.85
2022-10-22T02:19:47.351Z,52.86
2022-10-22T02:20:47.360Z,51.40
2022-10-22T02:21:47.415Z,50.66
2022-10-22T02:22:47.440Z,50.19
2022-10-22T02:23:47.455Z,49.21
2022-10-22T02:24:47.447Z,48.96
2022-10-22T02:25:47.431Z,48.17
2022-10-22T02:26:47.423Z,49.69
2022-10-22T02:27:47.413Z,47.76
2022-10-22T02:28:47.455Z,49.45
2022-10-22T02:29:47.409Z,49.40
2022-10-22T02:30:47.414Z,50.19
2022-10-22T02:31:47.275Z,47.47
2022-10-22T02:32:47.297Z,50.62
2022-10-22T02:33:47.330Z,51.40
2022-10-22T02:34:47.283Z,50.11
2022-10-22T02:35:47.319Z,51.67
2022-10-22T02:36:49.717Z,50.50
2022-10-22T02:37:47.236Z,46.53
2022-10-22T02:38:47.221Z,48.56
2022-10-22T02:39:47.346Z,49.96
2022-10-22T02:40:47.297Z,50.56
2022-10-22T02:41:47.295Z,51.36
2022-10-22T02:42:47.295Z,51.73
2022-10-22T02:43:47.306Z,50.18
2022-10-22T02:44:47.336Z,52.39
2022-10-22T02:45:47.297Z,49.25
2022-10-22T02:46:47.253Z,50.11
2022-10-22T02:47:47.241Z,52.60
2022-10-22T02:48:47.263Z,50.91
2022-10-22T02:49:47.246Z,53.31
2022-10-22T02:50:47.651Z,49.90
2022-10-22T02:51:47.270Z,51.10
2022-10-22T02:52:47.128Z,51.31
2022-10-22T02:53:47.139Z,49.88
2022-10-22T02:54:47.222Z,51.72
2022-10-22T02:55:47.145Z,51.23
2022-10-22T02:56:47.133Z,53.56
2022-10-22T02:57:47.163Z,49.37
2022-10-22T02:58:47.078Z,50.27
2022-10-22T02:59:47.173Z,53.78
2022-10-22T03:00:47.256Z,51.41
2022-10-22T03:01:47.134Z,49.70
2022-10-22T03:02:47.143Z,52.56
2022-10-22T03:03:47.146Z,53.75
2022-10-22T03:04:47.135Z,51.80
2022-10-22T03:05:47.127Z,51.26
2022-10-22T03:06:47.283Z,51.99
2022-10-22T03:07:47.123Z,53.82
2022-10-22T03:08:47.131Z,54.98
2022-10-22T03:09:47.076Z,50.50
2022-10-22T03:10:47.012Z,53.17
2022-10-22T03:11:47.033Z,53.06
2022-10-22T03:12:47.130Z,51.98
2022-10-22T03:13:46.994Z,51.13
2022-10-22T03:14:47.111Z,52.38
2022-10-22T03:15:47.071Z,49.14
2022-10-22T03:16:47.144Z,50.48
2022-10-22T03:17:47.042Z,50.22
2022-10-22T03:18:47.113Z,50.59
2022-10-22T03:19:47.072Z,53.15
2022-10-22T03:20:47.031Z,51.53
2022-10-22T03:21:47.040Z,53.65
2022-10-22T03:22:47.054Z,50.02
2022-10-22T03:23:47.988Z,51.29
2022-10-22T03:24:46.875Z,51.87
2022-10-22T03:25:46.963Z,49.71
2022-10-22T03:26:46.904Z,53.93
2022-10-22T03:27:46.898Z,54.43
2022-10-22T03:28:46.905Z,54.20
2022-10-22T03:29:46.840Z,53.99
2022-10-22T03:30:47.059Z,52.54
2022-10-22T03:31:46.994Z,50.85
2022-10-22T03:32:46.996Z,52.16
2022-10-22T03:33:46.944Z,53.71
2022-10-22T03:34:47.031Z,55.36
2022-10-22T03:35:46.933Z,51.68
2022-10-22T03:36:46.938Z,54.15
2022-10-22T03:37:46.960Z,52.13
2022-10-22T03:38:46.977Z,53.21
2022-10-22T03:39:46.972Z,50.79
2022-10-22T03:40:46.872Z,51.98
2022-10-22T03:41:46.943Z,51.84
2022-10-22T03:42:46.851Z,53.87
2022-10-22T03:43:46.889Z,53.26
2022-10-22T03:44:47.736Z,52.80
2022-10-22T03:45:46.732Z,52.00
2022-10-22T03:46:46.729Z,50.15
2022-10-22T03:47:46.747Z,48.97
2022-10-22T03:48:46.901Z,50.36
2022-10-22T03:49:46.744Z,53.14
2022-10-22T03:50:46.730Z,51.08
2022-10-22T03:51:46.695Z,50.83
2022-10-22T03:52:46.779Z,53.78
2022-10-22T03:53:46.784Z,53.30
2022-10-22T03:54:47.022Z,52.69
2022-10-22T03:55:46.785Z,52.71
2022-10-22T03:56:46.769Z,52.69
2022-10-22T03:57:46.775Z,52.72
2022-10-22T03:58:46.650Z,53.89
2022-10-22T03:59:46.773Z,49.94
2022-10-22T04:00:46.892Z,49.96
2022-10-22T04:01:46.716Z,50.81
2022-10-22T04:02:46.798Z,52.10
2022-10-22T04:03:46.726Z,53.05
2022-10-22T04:04:46.702Z,51.06
2022-10-22T04:05:46.657Z,54.87
2022-10-22T04:06:46.594Z,52.50
2022-10-22T04:07:46.666Z,55.39
2022-10-22T04:08:46.691Z,54.58
2022-10-22T04:09:46.590Z,52.81
2022-10-22T04:10:46.689Z,56.03
2022-10-22T04:11:46.683Z,53.24
2022-10-22T04:12:46.667Z,49.28
2022-10-22T04:13:46.665Z,50.61
2022-10-22T04:14:46.661Z,54.76
2022-10-22T04:16:46.678Z,55.57
2022-10-22T04:17:46.595Z,54.30
2022-10-22T04:18:46.652Z,52.19
2022-10-22T04:19:47.305Z,51.96
2022-10-22T04:20:46.535Z,53.74
2022-10-22T04:21:46.567Z,51.16
2022-10-22T04:22:46.593Z,52.95
2022-10-22T04:23:46.487Z,53.57
2022-10-22T04:24:46.618Z,53.44
2022-10-22T04:25:46.457Z,55.17
2022-10-22T04:26:46.473Z,51.87
2022-10-22T04:27:46.641Z,52.12
2022-10-22T04:28:46.545Z,51.83
2022-10-22T04:29:46.553Z,54.33
2022-10-22T04:30:46.523Z,50.65
2022-10-22T04:31:46.541Z,52.06
2022-10-22T04:32:46.602Z,51.25
2022-10-22T04:33:46.513Z,53.62
2022-10-22T04:34:46.549Z,51.03
2022-10-22T04:35:46.487Z,51.09
2022-10-22T04:36:46.494Z,51.68
2022-10-22T04:37:46.491Z,49.45
2022-10-22T04:38:46.425Z,52.58
2022-10-22T04:39:46.377Z,50.28
2022-10-22T04:40:46.380Z,49.55
2022-10-22T04:41:46.431Z,50.86
2022-10-22T04:42:46.375Z,50.93
2022-10-22T04:43:46.353Z,51.63
2022-10-22T04:44:46.338Z,51.38
2022-10-22T04:45:46.458Z,53.17
2022-10-22T04:46:46.478Z,53.06
2022-10-22T04:47:46.388Z,51.64
2022-10-22T04:48:46.514Z,53.75
2022-10-22T04:49:46.427Z,52.29
2022-10-22T04:50:46.434Z,50.76
2022-10-22T04:51:46.350Z,51.72
2022-10-22T04:52:46.394Z,52.65
2022-10-22T04:53:46.350Z,50.75
2022-10-22T04:54:46.409Z,53.19
2022-10-22T04:55:46.349Z,52.12
2022-10-22T04:56:46.231Z,52.31
2022-10-22T04:57:46.269Z,52.62
2022-10-22T04:58:46.323Z,50.36
2022-10-22T04:59:46.671Z,51.02
2022-10-22T05:00:46.238Z,54.13
2022-10-22T05:01:46.236Z,51.40
2022-10-22T05:02:46.220Z,52.88
2022-10-22T05:03:46.281Z,52.22
2022-10-22T05:04:46.278Z,55.82
2022-10-22T05:05:46.332Z,54.08
2022-10-22T05:06:46.318Z,50.07
2022-10-22T05:07:46.286Z,49.50
2022-10-22T05:08:46.329Z,51.15
2022-10-22T05:09:46.310Z,51.28
2022-10-22T05:10:46.262Z,53.14
2022-10-22T05:11:46.401Z,53.68
2022-10-22T05:12:46.241Z,54.27
2022-10-22T05:13:46.250Z,52.06
2022-10-22T05:14:46.181Z,51.41
2022-10-22T05:15:46.105Z,49.87
2022-10-22T05:17:46.214Z,53.39
2022-10-22T05:18:46.229Z,53.66
2022-10-22T05:19:46.179Z,53.74
2022-10-22T05:20:46.197Z,55.38
2022-10-22T05:21:46.205Z,57.18
2022-10-22T05:22:46.164Z,54.49
2022-10-22T05:23:46.174Z,52.57
2022-10-22T05:24:46.151Z,52.40
2022-10-22T05:25:46.207Z,53.45
2022-10-22T05:26:46.128Z,51.66
2022-10-22T05:27:46.198Z,52.07
2022-10-22T05:28:46.097Z,53.34
2022-10-22T05:29:46.122Z,54.13
2022-10-22T05:30:46.134Z,55.84
2022-10-22T05:31:46.023Z,55.01
2022-10-22T05:32:46.049Z,53.05
2022-10-22T05:33:46.013Z,55.43
2022-10-22T05:34:46.790Z,52.98
2022-10-22T05:35:46.855Z,54.23
2022-10-22T05:36:47.085Z,53.66
2022-10-22T05:37:46.179Z,52.21
2022-10-22T05:38:46.052Z,51.35
2022-10-22T05:39:46.070Z,51.37
2022-10-22T05:40:46.025Z,50.92
2022-10-22T05:41:46.065Z,52.62
2022-10-22T05:42:46.017Z,52.36
2022-10-22T05:43:46.047Z,52.98
2022-10-22T05:44:46.014Z,51.83
2022-10-22T05:45:45.995Z,52.62
2022-10-22T05:46:45.996Z,54.93
2022-10-22T05:47:45.953Z,53.12
2022-10-22T05:48:45.933Z,54.05
2022-10-22T05:49:45.889Z,53.20
2022-10-22T05:50:45.963Z,52.32
2022-10-22T05:51:45.865Z,53.93
2022-10-22T05:52:45.882Z,53.46
2022-10-22T05:53:45.848Z,56.66
2022-10-22T05:54:45.922Z,56.95
2022-10-22T05:55:45.862Z,58.72
2022-10-22T05:56:45.941Z,55.27
2022-10-22T05:57:45.993Z,55.46
2022-10-22T05:58:45.819Z,55.14
2022-10-22T05:59:45.966Z,54.36
2022-10-22T06:00:45.873Z,56.44
2022-10-22T06:01:45.963Z,56.30
2022-10-22T06:02:45.878Z,54.09
2022-10-22T06:03:45.884Z,56.62
2022-10-22T06:04:45.870Z,55.52
2022-10-22T06:05:46.264Z,55.64
2022-10-22T06:06:45.863Z,56.02
2022-10-22T06:07:45.849Z,53.77
2022-10-22T06:08:45.882Z,52.55
2022-10-22T06:09:45.846Z,53.85
2022-10-22T06:10:45.882Z,53.78
2022-10-22T06:11:45.718Z,54.63
2022-10-22T06:12:45.714Z,58.64
2022-10-22T06:13:45.866Z,58.47
2022-10-22T06:14:45.700Z,59.80
2022-10-22T06:15:45.710Z,59.52
2022-10-22T06:16:45.872Z,58.60
2022-10-22T06:18:18.615Z,60.25
2022-10-22T06:18:46.685Z,58.20
2022-10-22T06:19:46.693Z,59.65
2022-10-22T06:20:45.832Z,58.08
2022-10-22T06:21:45.810Z,58.31
2022-10-22T06:22:45.746Z,58.47
2022-10-22T06:23:45.712Z,59.95
2022-10-22T06:24:45.724Z,58.56
2022-10-22T06:25:45.736Z,58.51
2022-10-22T06:26:45.676Z,59.37
2022-10-22T06:27:45.762Z,58.87
2022-10-22T06:28:45.731Z,59.08
2022-10-22T06:29:45.685Z,59.39
2022-10-22T06:30:46.669Z,58.89
2022-10-22T06:31:46.619Z,59.17
2022-10-22T06:32:45.687Z,57.08
2022-10-22T06:33:46.646Z,58.38
2022-10-22T06:34:45.757Z,59.58
2022-10-22T06:35:45.651Z,58.36
2022-10-22T06:36:45.750Z,58.87
2022-10-22T06:37:45.712Z,59.24
2022-10-22T06:38:45.641Z,58.23
2022-10-22T06:39:45.626Z,56.03
2022-10-22T06:40:45.688Z,56.99
2022-10-22T06:41:45.654Z,56.21
2022-10-22T06:42:45.599Z,55.21
2022-10-22T06:43:45.619Z,55.20
2022-10-22T06:44:45.604Z,55.41
2022-10-22T06:45:45.569Z,55.79
2022-10-22T06:46:45.595Z,55.54
2022-10-22T06:47:45.582Z,54.16
2022-10-22T06:48:45.505Z,55.00
2022-10-22T06:49:45.499Z,54.15
2022-10-22T06:50:45.552Z,53.76
2022-10-22T06:51:45.584Z,55.54
2022-10-22T06:52:45.579Z,55.46
2022-10-22T06:53:45.639Z,54.39
2022-10-22T06:54:45.532Z,53.89
2022-10-22T06:55:45.620Z,53.17
2022-10-22T06:56:45.490Z,53.61
2022-10-22T06:57:45.566Z,52.87
2022-10-22T06:58:45.436Z,54.04
2022-10-22T06:59:45.638Z,55.00
2022-10-22T07:00:45.493Z,54.27
2022-10-22T07:01:45.538Z,55.37
2022-10-22T07:02:45.444Z,54.24
2022-10-22T07:03:45.490Z,54.97
2022-10-22T07:04:45.503Z,53.89
2022-10-22T07:05:45.376Z,54.62
2022-10-22T07:06:45.376Z,54.21
2022-10-22T07:07:45.381Z,54.72
2022-10-22T07:08:45.455Z,54.22
2022-10-22T07:09:45.339Z,53.61
2022-10-22T07:10:45.408Z,54.76
2022-10-22T07:11:45.329Z,59.11
2022-10-22T07:12:45.335Z,54.25
2022-10-22T07:13:45.293Z,54.68
2022-10-22T07:14:45.429Z,54.74
2022-10-22T07:15:45.441Z,54.19
2022-10-22T07:16:45.475Z,55.93
2022-10-22T07:17:45.430Z,56.18
2022-10-22T07:18:45.448Z,56.34
2022-10-22T07:19:55.845Z,54.28
2022-10-22T07:20:46.300Z,54.35
2022-10-22T07:21:45.350Z,54.61
2022-10-22T07:22:45.459Z,54.76
2022-10-22T07:23:45.370Z,57.05
2022-10-22T07:24:45.418Z,56.29
2022-10-22T07:25:45.346Z,56.95
2022-10-22T07:26:45.348Z,56.58
2022-10-22T07:27:45.321Z,56.17
2022-10-22T07:28:45.314Z,55.88
2022-10-22T07:29:45.393Z,56.38
2022-10-22T07:30:45.277Z,55.97
2022-10-22T07:31:45.312Z,56.02
2022-10-22T07:32:45.206Z,56.50
2022-10-22T07:33:45.207Z,55.53
2022-10-22T07:34:45.178Z,53.79
2022-10-22T07:35:51.655Z,55.10
2022-10-22T07:36:45.250Z,56.15
2022-10-22T07:37:45.178Z,55.17
2022-10-22T07:38:45.138Z,55.46
2022-10-22T07:39:45.152Z,56.82
2022-10-22T07:40:45.173Z,56.22
2022-10-22T07:41:45.320Z,56.23
2022-10-22T07:42:46.289Z,57.60
2022-10-22T07:43:45.301Z,55.68
2022-10-22T07:44:45.185Z,55.52
2022-10-22T07:45:45.303Z,54.93
2022-10-22T07:46:48.140Z,55.90
2022-10-22T07:47:46.376Z,56.16
2022-10-22T07:48:45.181Z,56.74
2022-10-22T07:49:45.145Z,56.15
2022-10-22T07:51:45.146Z,56.18
2022-10-22T07:52:45.145Z,57.01
2022-10-22T07:53:45.186Z,58.08
2022-10-22T07:54:45.148Z,56.51
2022-10-22T07:55:45.135Z,57.07
2022-10-22T07:56:45.170Z,56.35
2022-10-22T07:57:45.117Z,55.88
2022-10-22T07:58:45.119Z,54.97
2022-10-22T07:59:45.029Z,54.60
2022-10-22T08:00:44.987Z,56.90
2022-10-22T08:01:45.017Z,57.31
2022-10-22T08:02:44.989Z,55.94
2022-10-22T08:03:45.041Z,56.59
2022-10-22T08:04:45.232Z,55.69
2022-10-22T08:05:45.078Z,56.89
2022-10-22T08:06:47.249Z,57.94
2022-10-22T08:07:45.057Z,52.73
2022-10-22T08:08:45.125Z,54.69
2022-10-22T08:09:45.114Z,56.35
2022-10-22T08:10:45.144Z,54.65
2022-10-22T08:11:44.978Z,54.30
2022-10-22T08:12:44.997Z,54.03
2022-10-22T08:13:45.816Z,57.00
2022-10-22T08:14:46.180Z,58.62
2022-10-22T08:16:45.995Z,56.26
2022-10-22T08:17:44.984Z,53.78
2022-10-22T08:18:45.033Z,54.77
2022-10-22T08:19:44.974Z,55.47
2022-10-22T08:20:45.103Z,55.08
2022-10-22T08:21:44.956Z,58.04
2022-10-22T08:22:44.961Z,57.66
2022-10-22T08:23:45.206Z,57.89
2022-10-22T08:24:44.895Z,57.29
2022-10-22T08:25:44.850Z,55.93
2022-10-22T08:26:44.937Z,57.12
2022-10-22T08:27:45.245Z,57.03
2022-10-22T08:28:44.969Z,57.62
2022-10-22T08:29:44.786Z,57.07
2022-10-22T08:30:44.934Z,55.62
2022-10-22T08:31:44.914Z,54.13
2022-10-22T08:32:44.856Z,55.19
2022-10-22T08:34:00.434Z,55.60
2022-10-22T08:34:45.743Z,54.44
2022-10-22T08:35:44.843Z,55.95
2022-10-22T08:36:44.886Z,55.84
2022-10-22T08:37:44.861Z,54.98
2022-10-22T08:38:44.807Z,55.20
2022-10-22T08:39:44.849Z,54.07
2022-10-22T08:40:44.964Z,54.94
2022-10-22T08:41:44.806Z,54.14
2022-10-22T08:42:45.808Z,53.98
2022-10-22T08:43:44.803Z,55.45
2022-10-22T08:44:45.781Z,56.02
2022-10-22T08:45:44.815Z,55.55
2022-10-22T08:46:44.743Z,55.74
2022-10-22T08:47:44.631Z,55.97
2022-10-22T08:48:44.725Z,55.65
2022-10-22T08:49:44.809Z,55.58
2022-10-22T08:50:44.643Z,54.99
2022-10-22T08:51:44.682Z,54.74
2022-10-22T08:52:44.639Z,54.84
2022-10-22T08:53:44.744Z,55.01
2022-10-22T08:54:44.732Z,54.44
2022-10-22T08:55:44.748Z,55.49
2022-10-22T08:56:44.713Z,55.39
2022-10-22T08:57:46.542Z,54.92
2022-10-22T08:58:44.626Z,56.24
2022-10-22T08:59:44.980Z,55.89
2022-10-22T09:00:44.653Z,54.99
2022-10-22T09:01:44.635Z,56.46
2022-10-22T09:02:44.905Z,58.08
2022-10-22T09:03:44.644Z,60.52
2022-10-22T09:04:44.679Z,58.31
2022-10-22T09:05:44.594Z,54.41
2022-10-22T09:06:44.551Z,55.55
2022-10-22T09:07:51.830Z,57.34
2022-10-22T09:08:44.539Z,57.45
2022-10-22T09:09:44.504Z,55.85
2022-10-22T09:10:44.536Z,55.55
2022-10-22T09:11:44.495Z,55.62
2022-10-22T09:12:44.487Z,53.30
2022-10-22T09:13:44.513Z,56.05
2022-10-22T09:14:44.493Z,55.21
2022-10-22T09:15:46.513Z,54.85
2022-10-22T09:16:44.452Z,55.62
2022-10-22T09:17:44.832Z,55.69
2022-10-22T09:18:44.444Z,56.59
2022-10-22T09:19:44.577Z,55.90
2022-10-22T09:20:44.483Z,55.50
2022-10-22T09:21:44.547Z,57.02
2022-10-22T09:22:44.503Z,58.55
2022-10-22T09:23:44.477Z,53.90
2022-10-22T09:24:44.489Z,55.71
2022-10-22T09:25:44.455Z,56.70
2022-10-22T09:26:44.565Z,55.89
2022-10-22T09:27:44.789Z,57.38
2022-10-22T09:28:44.452Z,57.57
2022-10-22T09:29:44.425Z,57.06
2022-10-22T09:30:44.634Z,56.65
2022-10-22T09:31:44.442Z,56.32
2022-10-22T09:32:44.536Z,58.31
2022-10-22T09:33:44.409Z,57.09
2022-10-22T09:34:44.542Z,57.43
2022-10-22T09:35:44.422Z,58.63
2022-10-22T09:36:44.539Z,55.98
2022-10-22T09:37:44.465Z,56.81
2022-10-22T09:38:44.309Z,55.09
2022-10-22T09:39:44.311Z,56.79
2022-10-22T09:40:44.302Z,58.38
2022-10-22T09:41:44.319Z,56.39
2022-10-22T09:42:44.330Z,56.47
2022-10-22T09:43:44.375Z,55.73
2022-10-22T09:44:47.659Z,56.80
2022-10-22T09:45:44.262Z,56.47
2022-10-22T09:46:44.332Z,55.91
2022-10-22T09:48:01.112Z,56.19
2022-10-22T09:48:46.320Z,57.66
2022-10-22T09:49:44.344Z,56.07
2022-10-22T09:50:44.342Z,56.26
2022-10-22T09:51:44.285Z,56.61
2022-10-22T09:52:44.594Z,58.09
2022-10-22T09:53:44.378Z,57.88
2022-10-22T09:54:44.303Z,56.97
2022-10-22T09:55:44.334Z,57.09
2022-10-22T09:56:44.297Z,57.51
2022-10-22T09:57:44.621Z,57.80
2022-10-22T09:58:44.178Z,58.80
2022-10-22T09:59:44.323Z,58.75
2022-10-22T10:00:44.210Z,58.36
2022-10-22T10:01:44.198Z,57.48
2022-10-22T10:02:45.253Z,57.21
2022-10-22T10:03:44.208Z,59.29
2022-10-22T10:04:44.333Z,57.89
2022-10-22T10:05:44.201Z,57.07
2022-10-22T10:06:44.461Z,57.21
2022-10-22T10:07:44.620Z,55.67
2022-10-22T10:08:44.127Z,55.79
2022-10-22T10:09:44.097Z,57.88
2022-10-22T10:10:44.143Z,56.24
2022-10-22T10:11:44.027Z,55.23
2022-10-22T10:12:44.029Z,57.26
2022-10-22T10:13:44.066Z,55.61
2022-10-22T10:14:44.085Z,55.37
2022-10-22T10:15:44.056Z,55.12
2022-10-22T10:16:44.062Z,54.73
2022-10-22T10:17:44.431Z,55.80
2022-10-22T10:18:44.018Z,56.47
2022-10-22T10:19:44.122Z,57.63
2022-10-22T10:20:44.244Z,57.06
2022-10-22T10:21:44.100Z,57.63
2022-10-22T10:22:44.517Z,58.29
2022-10-22T10:23:44.074Z,58.52
2022-10-22T10:24:44.090Z,57.54
2022-10-22T10:25:44.057Z,57.74
2022-10-22T10:26:44.105Z,56.34
2022-10-22T10:27:44.039Z,57.52
2022-10-22T10:28:44.041Z,58.59
2022-10-22T10:29:44.027Z,56.14
2022-10-22T10:30:44.003Z,56.84
2022-10-22T10:31:44.070Z,57.15
2022-10-22T10:32:44.198Z,56.84
2022-10-22T10:33:44.057Z,57.75
2022-10-22T10:34:44.040Z,56.78
2022-10-22T10:35:43.888Z,56.60
2022-10-22T10:36:43.893Z,56.95
2022-10-22T10:37:43.918Z,57.06
2022-10-22T10:38:43.863Z,56.60
2022-10-22T10:39:43.877Z,56.92
2022-10-22T10:40:43.878Z,53.34
2022-10-22T10:41:44.271Z,53.63
2022-10-22T10:42:44.136Z,56.41
2022-10-22T10:43:44.057Z,54.83
2022-10-22T10:44:43.914Z,54.92
2022-10-22T10:45:43.900Z,57.50
2022-10-22T10:46:43.925Z,56.89
2022-10-22T10:47:44.120Z,56.55
2022-10-22T10:48:43.964Z,57.59
2022-10-22T10:49:43.894Z,55.69
2022-10-22T10:50:43.879Z,57.02
2022-10-22T10:51:43.966Z,56.62
2022-10-22T10:52:43.919Z,56.64
2022-10-22T10:53:44.518Z,56.29
2022-10-22T10:54:50.929Z,56.56
2022-10-22T10:55:43.862Z,56.87
2022-10-22T10:56:43.826Z,56.47
2022-10-22T10:57:48.381Z,57.44
2022-10-22T10:58:43.731Z,56.58
2022-10-22T10:59:46.603Z,56.64
2022-10-22T11:00:43.877Z,58.24
2022-10-22T11:01:43.922Z,56.60
2022-10-22T11:02:43.956Z,58.72
2022-10-22T11:03:43.700Z,57.01
2022-10-22T11:04:43.818Z,61.67
2022-10-22T11:05:43.668Z,59.98
2022-10-22T11:06:43.679Z,57.37
2022-10-22T11:07:43.698Z,56.61
2022-10-22T11:08:43.746Z,58.87
2022-10-22T11:09:43.761Z,56.65
2022-10-22T11:10:43.715Z,56.49
2022-10-22T11:11:43.645Z,55.76
2022-10-22T11:12:43.871Z,55.79
2022-10-22T11:13:43.712Z,55.63
2022-10-22T11:14:43.723Z,57.00
2022-10-22T11:15:43.796Z,55.67
2022-10-22T11:16:43.685Z,55.84
2022-10-22T11:17:43.716Z,59.49
2022-10-22T11:18:43.729Z,55.36
2022-10-22T11:19:51.209Z,57.04
2022-10-22T11:20:45.940Z,57.92
2022-10-22T11:21:43.687Z,57.59
2022-10-22T11:23:00.403Z,58.13
2022-10-22T11:23:45.563Z,56.86
2022-10-22T11:24:43.705Z,57.34
2022-10-22T11:25:43.730Z,59.56
2022-10-22T11:26:43.695Z,57.69
2022-10-22T11:27:44.157Z,58.08
2022-10-22T11:28:43.683Z,57.57
2022-10-22T11:29:43.740Z,56.71
2022-10-22T11:30:43.573Z,55.89
2022-10-22T11:31:43.602Z,55.72
2022-10-22T11:32:43.752Z,54.52
2022-10-22T11:33:43.542Z,54.82
2022-10-22T11:34:43.579Z,54.94
2022-10-22T11:35:43.699Z,56.32
2022-10-22T11:36:43.508Z,56.24
2022-10-22T11:37:43.711Z,56.80
2022-10-22T11:38:43.452Z,56.43
2022-10-22T11:39:43.589Z,55.56
2022-10-22T11:40:43.461Z,54.96
2022-10-22T11:41:43.504Z,56.59
2022-10-22T11:42:43.557Z,55.53
2022-10-22T11:43:43.587Z,56.35
2022-10-22T11:44:43.650Z,56.13
2022-10-22T11:45:43.472Z,55.26
2022-10-22T11:46:43.451Z,55.44
2022-10-22T11:47:43.576Z,57.42
2022-10-22T11:48:43.520Z,55.71
2022-10-22T11:49:43.504Z,57.93
2022-10-22T11:50:43.473Z,58.11
2022-10-22T11:51:44.403Z,58.00
2022-10-22T11:52:43.419Z,57.29
2022-10-22T11:53:43.363Z,57.09
2022-10-22T11:54:43.353Z,55.43
2022-10-22T11:55:44.304Z,57.39
2022-10-22T11:56:43.318Z,59.10
2022-10-22T11:57:43.762Z,57.65
2022-10-22T11:58:43.352Z,56.39
2022-10-22T11:59:43.380Z,55.31
2022-10-22T12:00:43.358Z,57.06
2022-10-22T12:01:43.313Z,57.33
2022-10-22T12:02:43.530Z,57.73
2022-10-22T12:03:43.367Z,58.21
2022-10-22T12:04:43.635Z,56.08
2022-10-22T12:05:43.342Z,56.06
2022-10-22T12:06:43.322Z,55.87
2022-10-22T12:07:43.330Z,56.43
2022-10-22T12:08:43.429Z,56.59
2022-10-22T12:09:43.555Z,57.01
2022-10-22T12:10:43.398Z,54.83
2022-10-22T12:11:44.278Z,56.71
2022-10-22T12:12:43.482Z,57.12
2022-10-22T12:13:43.413Z,55.64
2022-10-22T12:14:43.386Z,55.70
2022-10-22T12:15:43.452Z,57.57
2022-10-22T12:16:55.792Z,57.20
2022-10-22T12:17:45.384Z,56.58
2022-10-22T12:18:43.273Z,57.02
2022-10-22T12:19:43.207Z,60.42
2022-10-22T12:20:43.204Z,56.06
2022-10-22T12:21:43.633Z,56.82
2022-10-22T12:22:43.455Z,56.35
2022-10-22T12:23:43.234Z,57.51
2022-10-22T12:24:43.282Z,56.87
2022-10-22T12:25:43.161Z,57.31
2022-10-22T12:26:43.160Z,59.54
2022-10-22T12:27:43.756Z,57.74
2022-10-22T12:28:43.545Z,56.56
2022-10-22T12:29:43.223Z,57.45
2022-10-22T12:30:43.151Z,56.61
2022-10-22T12:31:43.169Z,56.88
2022-10-22T12:32:43.257Z,57.16
2022-10-22T12:33:43.169Z,59.20
2022-10-22T12:34:43.220Z,58.12
2022-10-22T12:35:43.160Z,57.78
2022-10-22T12:36:43.159Z,59.00
2022-10-22T12:37:43.571Z,56.21
2022-10-22T12:38:43.169Z,54.19
2022-10-22T12:39:43.170Z,55.86
2022-10-22T12:40:45.959Z,59.46
2022-10-22T12:41:45.014Z,57.10
2022-10-22T12:42:43.181Z,56.20
2022-10-22T12:43:43.076Z,55.99
2022-10-22T12:44:42.984Z,58.41
2022-10-22T12:45:42.979Z,58.42
2022-10-22T12:46:42.999Z,58.59
2022-10-22T12:47:43.323Z,55.74
2022-10-22T12:48:43.047Z,54.93
2022-10-22T12:49:43.069Z,56.96
2022-10-22T12:50:43.011Z,56.34
2022-10-22T12:51:43.008Z,55.47
2022-10-22T12:52:43.222Z,58.97
2022-10-22T12:53:43.034Z,57.67
2022-10-22T12:54:43.009Z,57.16
2022-10-22T12:55:42.978Z,55.17
2022-10-22T12:56:42.965Z,56.32
2022-10-22T12:57:43.002Z,56.96